Time;durP1;ratioP1;P1;durP2;ratioP2;P2;SDS_P1;SDS_P2;PMS_P1;PMS_P2;Temp;Humidity;BMP_temperature;BMP_pressure;BME280_temperature;BME280_humidity;BME280_pressure;Samples;Min_cycle;Max_cycle;Signal;HPM_P1;HPM_P2
2022/08/04 00:00:19;;;;;;;;;4.00;2.50;;;;;28.47;41.19;100839.75;5036956;28;45352;-52
2022/08/04 00:02:47;;;;;;;;;1.50;1.25;;;;;28.45;41.15;100852.06;5036421;28;46304;-53
2022/08/04 00:05:44;;;;;;;;;3.00;1.00;;;;;28.43;40.55;100852.28;5036722;28;45750;-57
2022/08/04 00:08:43;;;;;;;;;1.80;1.80;;;;;28.41;41.19;100846.28;4996887;28;45637;-52
2022/08/04 00:11:13;;;;;;;;;2.80;2.00;;;;;28.37;41.16;100845.16;4997106;28;45468;-53
2022/08/04 00:13:41;;;;;;;;;5.20;2.40;;;;;28.36;41.38;100851.72;4996756;28;45621;-51
2022/08/04 00:16:09;;;;;;;;;5.60;2.80;;;;;28.34;40.94;100841.00;4997112;28;45336;-54
2022/08/04 00:18:48;;;;;;;;;3.80;2.20;;;;;28.33;41.32;100833.88;4997056;28;45447;-50
2022/08/04 00:21:17;;;;;;;;;5.00;2.80;;;;;28.32;41.60;100842.34;4996975;28;45451;-56
2022/08/04 00:23:44;;;;;;;;;2.00;2.00;;;;;28.31;41.23;100836.03;4996867;28;45491;-60
2022/08/04 00:26:10;;;;;;;;;2.00;2.00;;;;;28.24;41.75;100827.25;5025563;28;46014;-52
2022/08/04 00:28:37;;;;;;;;;2.00;2.00;;;;;28.28;41.48;100838.50;5056495;28;45462;-56
2022/08/04 00:31:04;;;;;;;;;1.20;1.20;;;;;28.26;41.57;100846.13;5056630;28;45306;-53
2022/08/04 00:33:30;;;;;;;;;2.60;2.00;;;;;28.25;41.71;100852.69;5055931;28;46427;-55
2022/08/04 00:35:57;;;;;;;;;2.00;2.00;;;;;28.25;41.38;100844.47;5056284;28;45459;-58
2022/08/04 00:38:24;;;;;;;;;2.20;1.80;;;;;28.23;41.50;100841.16;5056572;28;45522;-53
2022/08/04 00:41:05;;;;;;;;;2.20;2.20;;;;;28.22;41.15;100836.78;5056377;28;45508;-59
2022/08/04 00:43:46;;;;;;;;;2.00;2.00;;;;;28.18;41.52;100841.13;5056119;28;45451;-58
2022/08/04 00:46:48;;;;;;;;;3.00;3.00;;;;;28.14;41.12;100840.81;5118635;27;45319;-57
2022/08/04 00:49:16;;;;;;;;;4.00;2.80;;;;;28.15;41.10;100842.50;5101240;27;45399;-58
2022/08/04 00:52:19;;;;;;;;;2.40;2.40;;;;;28.13;41.43;100850.13;5119947;27;45385;-59
2022/08/04 00:54:58;;;;;;;;;4.60;4.00;;;;;28.09;41.54;100843.53;5119695;27;46194;-58
2022/08/04 00:57:51;;;;;;;;;1.80;1.80;;;;;28.07;41.59;100849.25;5119285;27;45363;-58
2022/08/04 01:00:16;;;;;;;;;3.40;2.00;;;;;28.06;41.40;100842.16;5119743;27;45161;-57
2022/08/04 01:02:48;;;;;;;;;6.00;2.00;;;;;28.04;41.62;100838.00;5119698;27;45450;-52
2022/08/04 01:05:28;;;;;;;;;2.00;2.00;;;;;28.04;41.21;100832.53;5119619;27;46142;-57
2022/08/04 01:08:15;;;;;;;;;1.80;1.80;;;;;28.03;41.48;100839.09;5119349;27;45421;-59
2022/08/04 01:11:17;;;;;;;;;3.40;1.80;;;;;28.02;41.68;100819.16;5119352;27;45409;-58
2022/08/04 01:14:19;;;;;;;;;3.60;1.80;;;;;28.07;40.99;100830.13;5118771;27;45337;-60
2022/08/04 01:16:51;;;;;;;;;3.20;1.80;;;;;27.97;41.35;100815.53;5118838;27;45189;-59
2022/08/04 01:19:50;;;;;;;;;1.00;1.00;;;;;28.04;41.39;100827.91;5119330;27;45326;-58
2022/08/04 01:22:30;;;;;;;;;2.40;2.00;;;;;28.05;41.38;100839.66;5119314;27;45441;-56
2022/08/04 01:25:23;;;;;;;;;3.20;2.20;;;;;28.02;41.51;100834.69;5119612;27;45412;-54
2022/08/04 01:28:06;;;;;;;;;2.00;2.00;;;;;28.03;41.33;100833.63;5119257;27;45500;-57
2022/08/04 01:30:32;;;;;;;;;2.20;2.20;;;;;27.99;41.55;100827.88;5119145;27;45247;-53
2022/08/04 01:33:03;;;;;;;;;4.00;3.00;;;;;28.02;41.79;100832.81;5119240;27;45428;-53
2022/08/04 01:35:37;;;;;;;;;2.00;2.00;;;;;28.05;41.28;100840.47;5119141;27;45386;-54
2022/08/04 01:38:09;;;;;;;;;2.60;2.60;;;;;28.07;41.62;100837.50;5118757;27;47110;-59
2022/08/04 01:40:37;;;;;;;;;3.00;2.00;;;;;28.07;42.07;100829.31;5118796;27;45526;-53
2022/08/04 01:43:03;;;;;;;;;3.00;1.80;;;;;28.08;42.48;100833.69;5118914;27;45322;-54
2022/08/04 01:45:29;;;;;;;;;3.00;2.20;;;;;28.10;42.38;100829.56;5119231;27;45206;-51
2022/08/04 01:47:56;;;;;;;;;2.80;2.80;;;;;28.15;42.14;100827.97;5118480;27;46222;-50
2022/08/04 01:50:23;;;;;;;;;2.20;2.20;;;;;28.16;42.63;100824.16;5118902;27;45456;-53
2022/08/04 01:52:52;;;;;;;;;3.20;1.80;;;;;28.17;42.24;100823.06;5118916;27;45337;-53
2022/08/04 01:55:18;;;;;;;;;2.00;2.00;;;;;28.17;42.71;100823.06;5118974;27;45318;-50
2022/08/04 01:57:49;;;;;;;;;2.00;2.00;;;;;28.14;42.52;100816.22;5118508;27;45301;-51
2022/08/04 02:00:21;;;;;;;;;3.20;2.00;;;;;28.10;42.40;100818.63;5118418;27;45361;-52
2022/08/04 02:02:48;;;;;;;;;2.20;2.20;;;;;28.03;42.44;100815.31;5118790;27;45369;-53
2022/08/04 02:05:16;;;;;;;;;3.80;2.20;;;;;28.03;42.95;100814.50;5119106;27;45547;-50
2022/08/04 02:08:10;;;;;;;;;4.60;2.20;;;;;27.97;42.42;100812.78;5118424;27;45690;-50
2022/08/04 02:10:38;;;;;;;;;3.60;2.00;;;;;27.92;42.99;100799.91;5118020;27;45313;-54
2022/08/04 02:13:13;;;;;;;;;3.00;3.00;;;;;27.88;42.63;100814.34;5118521;27;45356;-51
2022/08/04 02:15:57;;;;;;;;;2.40;1.20;;;;;27.79;42.87;100809.38;5118753;27;45383;-52
2022/08/04 02:18:26;;;;;;;;;3.20;3.20;;;;;27.80;43.17;100812.91;5118367;27;46419;-53
2022/08/04 02:20:58;;;;;;;;;2.80;2.00;;;;;27.77;42.79;100817.00;5118328;27;45362;-54
2022/08/04 02:23:37;;;;;;;;;2.60;2.60;;;;;27.72;42.92;100818.81;5118395;27;45213;-50
2022/08/04 02:26:21;;;;;;;;;3.00;3.00;;;;;27.59;42.90;100801.75;5118352;27;45556;-52
2022/08/04 02:29:07;;;;;;;;;4.00;2.00;;;;;27.64;43.48;100820.09;5118359;27;46112;-54
2022/08/04 02:31:40;;;;;;;;;2.00;2.00;;;;;27.59;43.46;100806.41;5118286;27;45356;-49
2022/08/04 02:34:12;;;;;;;;;1.40;1.40;;;;;27.53;43.75;100800.06;5117986;27;45471;-52
2022/08/04 02:36:41;;;;;;;;;4.20;2.60;;;;;27.47;43.88;100783.88;5118382;27;45405;-57
2022/08/04 02:39:11;;;;;;;;;4.00;2.60;;;;;27.42;43.90;100798.31;5117997;27;45468;-53
2022/08/04 02:41:38;;;;;;;;;3.80;2.20;;;;;27.35;44.24;100794.97;5118007;27;46359;-54
2022/08/04 02:44:06;;;;;;;;;4.40;3.60;;;;;27.31;44.15;100796.56;5118120;27;45362;-52
2022/08/04 02:46:33;;;;;;;;;4.80;3.40;;;;;27.29;44.27;100802.25;5118292;27;45541;-54
2022/08/04 02:49:05;;;;;;;;;2.00;2.00;;;;;27.27;44.09;100795.44;5118077;27;46176;-58
2022/08/04 02:51:36;;;;;;;;;4.20;1.60;;;;;27.25;43.70;100800.31;5117811;27;45170;-58
2022/08/04 02:54:04;;;;;;;;;2.00;2.00;;;;;27.21;44.53;100804.63;5117941;27;45295;-54
2022/08/04 02:56:31;;;;;;;;;3.20;2.40;;;;;27.17;44.32;100803.47;5118177;27;45196;-53
2022/08/04 02:59:00;;;;;;;;;4.60;3.00;;;;;27.11;44.94;100803.44;5117680;27;47004;-54
2022/08/04 03:01:26;;;;;;;;;2.80;2.80;;;;;27.09;44.84;100813.81;5117755;27;45365;-56
2022/08/04 03:04:03;;;;;;;;;1.80;1.80;;;;;27.13;44.84;100824.19;5118005;27;45381;-53
2022/08/04 03:07:02;;;;;;;;;3.00;3.00;;;;;27.11;44.16;100811.63;5118026;27;45282;-55
2022/08/04 03:09:30;;;;;;;;;1.80;1.80;;;;;27.12;45.02;100820.63;5117696;27;46180;-52
2022/08/04 03:12:34;;;;;;;;;1.80;1.80;;;;;27.08;44.12;100816.72;5117471;27;45435;-51
2022/08/04 03:15:28;;;;;;;;;1.00;1.00;;;;;27.06;44.31;100819.72;5117640;27;45338;-52
2022/08/04 03:18:32;;;;;;;;;4.80;2.00;;;;;27.02;44.56;100817.75;5117800;27;45508;-57
2022/08/04 03:21:15;;;;;;;;;3.40;3.40;;;;;26.99;44.59;100821.00;5117397;27;47221;-55
2022/08/04 03:24:25;;;;;;;;;3.60;3.60;;;;;26.93;44.78;100811.91;5117745;27;45353;-54
2022/08/04 03:27:06;;;;;;;;;3.00;3.00;;;;;26.90;44.83;100814.34;5116839;27;45458;-51
2022/08/04 03:29:59;;;;;;;;;1.60;1.60;;;;;26.88;44.80;100820.03;5117606;27;45367;-51
2022/08/04 03:33:00;;;;;;;;;3.60;2.80;;;;;26.86;45.00;100819.47;5117363;27;45345;-49
2022/08/04 03:35:34;;;;;;;;;2.40;2.40;;;;;26.87;45.42;100819.19;5117098;27;45460;-56
2022/08/04 03:38:42;;;;;;;;;3.20;3.20;;;;;26.88;44.77;100809.09;5120951;27;45469;-56
2022/08/04 03:41:44;;;;;;;;;6.40;3.40;;;;;26.84;44.71;100807.97;5120796;27;45446;-56
2022/08/04 03:44:31;;;;;;;;;3.80;3.80;;;;;26.80;44.98;100806.81;5120762;27;47081;-49
2022/08/04 03:47:27;;;;;;;;;2.80;2.80;;;;;26.76;45.03;100811.16;5120690;27;45330;-57
2022/08/04 03:49:58;;;;;;;;;1.60;1.60;;;;;26.73;45.20;100817.09;5120959;27;45431;-56
2022/08/04 03:55:53;;;;;;;;;5.60;2.40;;;;;26.70;45.15;100812.16;5120674;27;45887;-53
2022/08/04 03:58:38;;;;;;;;;2.40;2.40;;;;;26.69;45.48;100815.97;5120443;27;45322;-52
2022/08/04 04:01:24;;;;;;;;;3.40;3.40;;;;;26.66;45.32;100813.72;5120733;27;45464;-53
2022/08/04 04:04:31;;;;;;;;;3.40;3.00;;;;;26.65;45.19;100806.63;5120689;27;45222;-52
2022/08/04 04:07:15;;;;;;;;;2.00;2.00;;;;;26.63;45.37;100798.66;5016597;28;46181;-53
2022/08/04 04:10:02;;;;;;;;;2.80;2.80;;;;;26.56;45.26;100793.41;5016008;28;45291;-50
2022/08/04 04:13:05;;;;;;;;;2.40;2.00;;;;;26.54;45.41;100794.72;5017021;28;45417;-54
2022/08/04 04:15:42;;;;;;;;;3.00;3.00;;;;;26.51;45.95;100790.63;5017297;28;45417;-52
2022/08/04 04:18:45;;;;;;;;;3.00;3.00;;;;;26.51;45.43;100800.72;5016649;28;46411;-57
2022/08/04 04:21:32;;;;;;;;;2.00;1.60;;;;;26.51;45.54;100817.06;5016738;28;45282;-52
2022/08/04 04:24:19;;;;;;;;;4.20;3.40;;;;;26.50;46.31;100826.31;5016634;28;45420;-54
2022/08/04 04:27:07;;;;;;;;;6.60;3.20;;;;;26.51;45.95;100828.81;5016831;28;45330;-54
2022/08/04 04:30:01;;;;;;;;;4.20;2.80;;;;;26.51;45.88;100830.72;5016512;28;46294;-55
2022/08/04 04:32:45;;;;;;;;;2.40;2.40;;;;;26.49;46.25;100838.31;4999790;28;45330;-57
2022/08/04 04:35:25;;;;;;;;;4.00;3.40;;;;;26.50;46.13;100838.06;5016268;28;45451;-52
2022/08/04 04:38:26;;;;;;;;;3.80;3.80;;;;;26.49;46.13;100836.41;5016688;28;45263;-53
2022/08/04 04:41:13;;;;;;;;;1.80;1.60;;;;;26.46;46.31;100825.97;5016259;28;46287;-58
2022/08/04 04:44:02;;;;;;;;;2.80;2.80;;;;;26.46;45.39;100827.88;5093757;27;45374;-55
2022/08/04 04:46:54;;;;;;;;;4.80;2.40;;;;;26.42;46.09;100835.75;5099406;27;45311;-54
2022/08/04 04:49:31;;;;;;;;;4.20;2.20;;;;;26.43;46.13;100847.47;5098650;27;45707;-54
2022/08/04 04:52:08;;;;;;;;;3.00;3.00;;;;;26.42;46.04;100865.75;5099154;27;45273;-52
2022/08/04 04:54:38;;;;;;;;;3.80;3.60;;;;;26.46;45.85;100874.25;5099205;27;45503;-57
2022/08/04 04:57:09;;;;;;;;;4.20;2.40;;;;;26.47;46.01;100876.75;5099358;27;45410;-54
2022/08/04 04:59:38;;;;;;;;;4.80;3.20;;;;;26.49;46.07;100862.88;5099135;27;45623;-57
2022/08/04 05:02:29;;;;;;;;;2.60;2.60;;;;;26.48;45.61;100872.94;5097662;27;45257;-53
2022/08/04 05:05:16;;;;;;;;;2.40;2.00;;;;;26.46;45.83;100879.72;5098921;27;45368;-56
2022/08/04 05:08:09;;;;;;;;;2.00;2.00;;;;;26.49;45.93;100877.31;5098835;27;45444;-54
2022/08/04 05:10:45;;;;;;;;;3.80;3.80;;;;;26.50;46.28;100870.78;5098943;27;45289;-49
2022/08/04 05:13:22;;;;;;;;;1.60;1.60;;;;;26.48;46.82;100864.78;5098435;27;46075;-57
2022/08/04 05:15:53;;;;;;;;;3.00;2.00;;;;;26.49;46.47;100873.78;5098885;27;45438;-55
2022/08/04 05:18:23;;;;;;;;;4.20;3.00;;;;;26.50;45.96;100872.69;5098962;27;45376;-54
2022/08/04 05:21:08;;;;;;;;;3.60;1.80;;;;;26.47;46.68;100884.13;5098790;27;45528;-55
2022/08/04 05:23:36;;;;;;;;;3.80;1.80;;;;;26.44;46.66;100870.94;5098425;27;45815;-54
2022/08/04 05:26:11;;;;;;;;;3.60;2.00;;;;;26.41;46.22;100865.97;5098809;27;45448;-54
2022/08/04 05:28:40;;;;;;;;;7.60;3.00;;;;;26.35;46.59;100874.09;5098705;27;45330;-52
2022/08/04 05:31:17;;;;;;;;;4.80;3.00;;;;;26.33;46.12;100886.31;5098966;27;45353;-55
2022/08/04 05:33:52;;;;;;;;;2.60;2.60;;;;;26.31;46.29;100888.47;5098028;27;45287;-52
2022/08/04 05:36:21;;;;;;;;;3.40;2.80;;;;;26.34;46.32;100894.25;5119074;27;45330;-52
2022/08/04 05:38:52;;;;;;;;;4.00;3.20;;;;;26.33;45.79;100899.94;5119305;27;45210;-57
2022/08/04 05:41:18;;;;;;;;;3.00;3.00;;;;;26.24;46.58;100896.78;5119136;27;45338;-54
2022/08/04 05:43:46;;;;;;;;;4.00;4.00;;;;;26.26;46.27;100902.84;5118837;27;45943;-53
2022/08/04 05:46:15;;;;;;;;;3.20;3.20;;;;;26.26;46.95;100902.84;5118760;27;45312;-53
2022/08/04 05:48:43;;;;;;;;;3.60;3.00;;;;;26.27;46.89;100898.22;5119133;27;45342;-55
2022/08/04 05:51:10;;;;;;;;;5.20;3.80;;;;;26.28;46.54;100900.69;5119170;27;45247;-52
2022/08/04 05:53:37;;;;;;;;;3.40;3.40;;;;;26.22;46.54;100889.94;5118690;27;46410;-57
2022/08/04 05:56:05;;;;;;;;;4.80;3.60;;;;;26.22;46.28;100900.88;5118804;27;45391;-53
2022/08/04 05:58:31;;;;;;;;;5.60;3.60;;;;;26.21;46.37;100900.03;5118350;27;45439;-53
2022/08/04 06:00:59;;;;;;;;;5.00;3.00;;;;;26.25;46.89;100898.47;5118843;27;45258;-52
2022/08/04 06:03:27;;;;;;;;;5.60;4.00;;;;;26.29;46.09;100890.59;5118516;27;46372;-54
2022/08/04 06:05:53;;;;;;;;;4.20;2.80;;;;;26.35;46.44;100881.44;5118785;27;45323;-52
2022/08/04 06:08:19;;;;;;;;;4.00;4.00;;;;;26.43;45.49;100881.03;5118710;27;45490;-53
2022/08/04 06:10:46;;;;;;;;;5.25;3.75;;;;;26.56;45.73;100874.44;5118737;27;45435;-53
2022/08/04 06:13:17;;;;;;;;;4.20;3.00;;;;;26.65;45.68;100870.22;5118372;27;46160;-53
2022/08/04 06:15:47;;;;;;;;;3.80;3.60;;;;;26.84;44.70;100887.97;5118776;27;45414;-50
2022/08/04 06:18:13;;;;;;;;;4.00;4.00;;;;;26.99;44.47;100884.59;5118917;27;45323;-49
2022/08/04 06:20:42;;;;;;;;;3.40;2.60;;;;;27.11;44.55;100881.81;5118816;27;45342;-56
2022/08/04 06:23:12;;;;;;;;;4.60;4.60;;;;;27.19;44.14;100883.28;5118140;27;46422;-53
2022/08/04 06:25:45;;;;;;;;;5.00;4.00;;;;;27.30;44.51;100887.75;5118377;27;45317;-52
2022/08/04 06:28:11;;;;;;;;;4.20;3.60;;;;;27.29;44.06;100888.84;5118201;27;45297;-57
2022/08/04 06:30:39;;;;;;;;;3.80;3.40;;;;;27.26;43.76;100882.00;5118409;27;45334;-59
2022/08/04 06:33:32;;;;;;;;;6.60;4.40;;;;;27.27;43.51;100891.03;5118168;27;46193;-55
2022/08/04 06:35:59;;;;;;;;;4.00;3.60;;;;;27.27;43.99;100897.31;5109996;27;45390;-51
2022/08/04 06:38:28;;;;;;;;;3.80;2.20;;;;;27.31;43.45;100894.91;5118351;27;45277;-58
2022/08/04 06:40:56;;;;;;;;;3.20;3.00;;;;;27.35;43.28;100888.66;5118312;27;45326;-57
2022/08/04 06:43:23;;;;;;;;;6.60;2.80;;;;;27.41;43.35;100896.91;5118080;27;45333;-59
2022/08/04 06:45:51;;;;;;;;;3.40;3.40;;;;;27.45;43.14;100887.97;5118211;27;45343;-59
2022/08/04 06:48:18;;;;;;;;;4.40;2.00;;;;;27.69;43.04;100906.81;5118197;27;45335;-51
2022/08/04 06:50:48;;;;;;;;;4.60;3.40;;;;;27.88;42.79;100904.56;5118350;27;45310;-60
2022/08/04 06:53:15;;;;;;;;;5.80;4.80;;;;;27.87;42.40;100905.66;5116530;27;46346;-54
2022/08/04 06:55:49;;;;;;;;;3.40;3.00;;;;;27.90;42.38;100919.66;5117964;27;45289;-59
2022/08/04 06:58:15;;;;;;;;;5.80;3.60;;;;;27.85;42.51;100919.56;5118024;27;45476;-58
2022/08/04 07:00:43;;;;;;;;;7.60;4.00;;;;;27.78;42.54;100918.97;5118102;27;45356;-57
2022/08/04 07:03:10;;;;;;;;;4.00;3.00;;;;;27.78;42.53;100916.25;5117737;27;46552;-56
2022/08/04 07:05:36;;;;;;;;;5.80;4.60;;;;;27.80;42.88;100922.25;5117619;27;45487;-58
2022/08/04 07:08:01;;;;;;;;;6.50;3.00;;;;;27.82;42.72;100918.19;5117986;27;45484;-52
2022/08/04 07:10:28;;;;;;;;;6.25;4.50;;;;;27.94;42.36;100915.31;5118232;27;45510;-57
2022/08/04 07:12:58;;;;;;;;;7.40;4.20;;;;;28.04;42.16;100923.63;5121161;27;45342;-58
2022/08/04 07:15:25;;;;;;;;;3.40;3.40;;;;;28.33;41.74;100928.81;5121094;27;45239;-58
2022/08/04 07:17:53;;;;;;;;;3.00;2.00;;;;;28.80;40.86;100925.38;5121468;27;45452;-59
2022/08/04 07:20:19;;;;;;;;;5.20;4.00;;;;;29.41;39.93;100924.88;5121721;27;45332;-55
2022/08/04 07:22:47;;;;;;;;;2.80;2.60;;;;;30.00;39.57;100933.63;5121148;27;45295;-57
2022/08/04 07:25:15;;;;;;;;;3.80;3.00;;;;;30.58;37.49;100936.94;5121264;27;45370;-52
2022/08/04 07:27:41;;;;;;;;;2.60;2.60;;;;;31.22;36.50;100938.22;5121194;27;45512;-58
2022/08/04 07:30:07;;;;;;;;;4.60;3.40;;;;;31.87;35.98;100953.97;5121317;27;45333;-55
2022/08/04 07:32:33;;;;;;;;;3.40;3.00;;;;;32.13;36.30;100941.69;5121107;27;47205;-58
2022/08/04 07:35:00;;;;;;;;;6.00;3.00;;;;;32.13;35.06;100947.19;5120793;27;45738;-56
2022/08/04 07:37:26;;;;;;;;;7.00;2.80;;;;;31.98;35.17;100944.53;5121305;27;45311;-56
2022/08/04 07:39:52;;;;;;;;;3.00;2.25;;;;;31.90;35.78;100942.38;5121267;27;45472;-57
2022/08/04 07:42:19;;;;;;;;;5.40;4.20;;;;;32.23;35.01;100949.84;5120084;27;46463;-58
2022/08/04 07:44:45;;;;;;;;;7.60;5.00;;;;;32.43;34.54;100940.66;5120839;27;45535;-57
2022/08/04 07:47:10;;;;;;;;;4.80;2.60;;;;;32.47;34.90;100947.22;5120861;27;45360;-54
2022/08/04 07:49:36;;;;;;;;;3.50;2.00;;;;;32.47;34.72;100952.72;5121231;27;45450;-54
2022/08/04 07:52:03;;;;;;;;;5.00;3.50;;;;;31.99;34.80;100947.00;5120875;27;45318;-59
2022/08/04 07:54:29;;;;;;;;;4.60;3.00;;;;;31.53;35.49;100940.91;5119771;27;45412;-52
2022/08/04 07:56:56;;;;;;;;;5.00;4.40;;;;;30.96;36.94;100923.75;5120910;27;45255;-54
2022/08/04 07:59:21;;;;;;;;;3.40;3.40;;;;;30.67;37.41;100958.38;5120740;27;45242;-56
2022/08/04 08:01:47;;;;;;;;;6.25;3.25;;;;;30.40;37.87;100958.66;5120608;27;46279;-57
2022/08/04 08:04:13;;;;;;;;;15.40;9.40;;;;;30.07;38.19;100958.84;5120455;27;45413;-59
2022/08/04 08:06:39;;;;;;;;;5.20;4.00;;;;;29.66;40.16;100959.84;5120445;27;45396;-57
2022/08/04 08:09:11;;;;;;;;;5.80;3.60;;;;;29.27;41.32;100977.44;5119835;27;45382;-54
2022/08/04 08:11:36;;;;;;;;;4.00;4.00;;;;;29.02;42.89;100977.28;5120263;27;46274;-53
2022/08/04 08:14:02;;;;;;;;;5.75;3.75;;;;;28.72;43.73;100973.22;5120318;27;45381;-57
2022/08/04 08:16:27;;;;;;;;;7.75;4.00;;;;;28.43;44.62;100980.91;5119964;27;45243;-56
2022/08/04 08:18:54;;;;;;;;;1.50;1.50;;;;;28.14;44.35;100980.31;5120579;27;45449;-52
2022/08/04 08:21:21;;;;;;;;;3.40;3.40;;;;;27.92;44.73;100983.09;5120191;27;47249;-56
2022/08/04 08:23:47;;;;;;;;;4.20;3.00;;;;;27.80;45.30;100999.63;5119794;27;45339;-56
2022/08/04 08:26:12;;;;;;;;;7.25;4.25;;;;;27.59;45.35;100998.50;5120273;27;45529;-55
2022/08/04 08:28:38;;;;;;;;;4.50;3.50;;;;;27.53;44.99;101010.47;5120334;27;45425;-53
2022/08/04 08:31:04;;;;;;;;;3.00;3.00;;;;;27.44;45.17;100998.31;5119746;27;47213;-56
2022/08/04 08:33:29;;;;;;;;;4.50;2.25;;;;;27.33;46.74;100985.59;5120060;27;45438;-57
2022/08/04 08:35:55;;;;;;;;;3.75;3.00;;;;;27.22;46.60;100979.19;5119865;27;45286;-53
2022/08/04 08:38:36;;;;;;;;;4.50;2.75;;;;;27.08;45.76;100986.03;5120180;27;45340;-55
2022/08/04 08:41:19;;;;;;;;;6.60;3.60;;;;;27.01;46.82;100994.41;5119799;27;47480;-50
2022/08/04 08:44:03;;;;;;;;;5.40;3.60;;;;;26.97;47.69;101001.44;5119800;27;45306;-55
2022/08/04 08:46:55;;;;;;;;;3.80;2.40;;;;;26.82;47.18;100993.00;5120121;27;45465;-51
2022/08/04 08:50:05;;;;;;;;;3.60;3.60;;;;;26.85;46.99;101006.16;5120273;27;45463;-53
2022/08/04 08:52:49;;;;;;;;;4.00;1.80;;;;;26.86;47.00;100999.63;5075822;27;45482;-55
2022/08/04 08:55:36;;;;;;;;;2.00;2.00;;;;;26.81;47.14;100992.19;5119778;27;45249;-49
2022/08/04 08:58:19;;;;;;;;;2.60;2.60;;;;;26.83;47.43;101000.94;5119670;27;45384;-53
2022/08/04 09:01:03;;;;;;;;;3.00;3.00;;;;;26.88;47.56;100986.53;5119839;27;45472;-53
2022/08/04 09:03:48;;;;;;;;;3.80;3.80;;;;;26.89;46.59;100985.47;5119057;27;45302;-53
2022/08/04 09:06:21;;;;;;;;;4.20;3.20;;;;;26.98;47.25;100977.69;5119497;27;45302;-54
2022/08/04 09:09:09;;;;;;;;;6.60;3.80;;;;;27.09;47.44;100987.66;5119559;27;45354;-52
2022/08/04 09:11:54;;;;;;;;;5.00;4.20;;;;;27.24;46.84;100984.38;5101198;27;45451;-51
2022/08/04 09:14:27;;;;;;;;;2.40;2.40;;;;;27.42;46.46;100994.19;5118205;27;46361;-52
2022/08/04 09:17:04;;;;;;;;;5.60;4.20;;;;;27.63;46.13;100992.53;5119169;27;45443;-51
2022/08/04 09:19:44;;;;;;;;;5.00;3.80;;;;;27.93;45.29;101001.16;5119299;27;45198;-50
2022/08/04 09:22:21;;;;;;;;;4.40;3.20;;;;;28.20;44.80;100994.88;5119507;27;45200;-51
2022/08/04 09:24:57;;;;;;;;;6.60;3.80;;;;;28.55;44.13;101010.84;5119268;27;45258;-51
2022/08/04 09:27:36;;;;;;;;;5.00;3.80;;;;;29.03;43.41;101011.81;5118804;27;45279;-49
2022/08/04 09:30:10;;;;;;;;;5.40;4.00;;;;;29.53;42.27;101015.94;5119050;27;45481;-51
2022/08/04 09:32:52;;;;;;;;;3.00;3.00;;;;;29.95;42.09;101018.63;5119394;27;45455;-54
2022/08/04 09:35:39;;;;;;;;;3.80;3.60;;;;;30.39;40.63;101006.44;5118123;27;45274;-55
2022/08/04 09:38:34;;;;;;;;;5.00;3.00;;;;;30.88;40.27;101000.41;5119219;27;45437;-54
2022/08/04 09:41:09;;;;;;;;;6.20;3.00;;;;;31.23;39.07;100997.63;5119066;27;45395;-53
2022/08/04 09:44:06;;;;;;;;;4.00;2.80;;;;;31.08;39.40;101011.38;5119163;27;45354;-51
2022/08/04 09:46:38;;;;;;;;;4.80;3.00;;;;;30.95;39.63;101011.94;5118778;27;45401;-51
2022/08/04 09:49:20;;;;;;;;;3.40;3.40;;;;;30.87;39.21;101010.56;5119157;27;45314;-53
2022/08/04 09:51:52;;;;;;;;;4.20;4.20;;;;;31.00;39.20;101021.00;5118936;27;45522;-50
2022/08/04 09:54:44;;;;;;;;;5.40;2.40;;;;;31.64;38.69;100993.91;5118966;27;45383;-54
2022/08/04 09:57:13;;;;;;;;;3.60;2.20;;;;;32.46;36.90;101010.84;5118665;27;46150;-55
2022/08/04 10:00:06;;;;;;;;;3.60;1.60;;;;;32.61;36.65;101009.91;5118478;27;45335;-54
2022/08/04 10:02:37;;;;;;;;;3.60;3.20;;;;;34.14;34.87;101002.75;5118620;27;45386;-54
2022/08/04 10:05:08;;;;;;;;;3.60;2.00;;;;;34.56;33.55;100999.09;5119018;27;45246;-51
2022/08/04 10:07:42;;;;;;;;;3.40;3.40;;;;;33.82;34.38;101003.44;5118045;27;45401;-51
2022/08/04 10:10:07;;;;;;;;;3.80;2.00;;;;;33.12;35.53;101007.56;5118567;27;45418;-55
2022/08/04 10:13:05;;;;;;;;;4.00;2.50;;;;;32.37;36.68;101007.88;5118722;27;45476;-52
2022/08/04 10:15:33;;;;;;;;;1.80;1.80;;;;;31.90;37.45;100995.50;5118800;27;45370;-53
2022/08/04 10:18:10;;;;;;;;;3.00;2.00;;;;;31.44;38.21;100994.84;5118522;27;47384;-53
2022/08/04 10:21:03;;;;;;;;;5.00;3.00;;;;;31.10;38.89;101000.09;5118497;27;45373;-51
2022/08/04 10:23:37;;;;;;;;;3.40;2.60;;;;;30.94;38.91;101011.13;5118531;27;45266;-52
2022/08/04 10:26:24;;;;;;;;;6.00;3.00;;;;;30.98;39.13;101008.66;5118670;27;45389;-54
2022/08/04 10:28:55;;;;;;;;;3.00;3.00;;;;;31.08;38.85;101008.63;5117259;27;45451;-52
2022/08/04 10:31:35;;;;;;;;;6.20;2.00;;;;;31.15;38.68;100994.63;5118152;27;45516;-52
2022/08/04 10:34:10;;;;;;;;;4.40;2.00;;;;;32.93;36.80;101007.44;5117549;27;45335;-51
2022/08/04 10:36:55;;;;;;;;;3.00;2.00;;;;;35.93;32.60;100978.19;5118621;27;45429;-52
2022/08/04 10:39:31;;;;;;;;;1.20;1.20;;;;;37.03;30.64;101004.66;5117978;27;46408;-52
2022/08/04 10:42:24;;;;;;;;;3.60;3.00;;;;;37.98;29.53;101004.19;5117218;27;45390;-55
2022/08/04 10:45:15;;;;;;;;;2.20;2.00;;;;;39.28;28.18;100990.94;5117977;27;45313;-53
2022/08/04 10:48:05;;;;;;;;;2.80;2.00;;;;;40.27;26.58;100987.69;5121767;27;45499;-52
2022/08/04 10:50:35;;;;;;;;;1.00;1.00;;;;;41.45;26.39;100977.03;5120910;27;46205;-55
2022/08/04 10:53:08;;;;;;;;;2.00;1.40;;;;;41.17;27.15;100986.06;5121801;27;45413;-53
2022/08/04 10:55:45;;;;;;;;;2.40;2.00;;;;;40.67;27.17;100975.16;5121954;27;45395;-57
2022/08/04 10:58:21;;;;;;;;;3.60;1.80;;;;;41.21;25.33;100978.63;5122230;27;45387;-53
2022/08/04 11:00:48;;;;;;;;;2.00;2.00;;;;;42.67;23.20;100968.28;5121665;27;46125;-54
2022/08/04 11:03:31;;;;;;;;;3.60;2.20;;;;;43.72;22.83;100975.28;5121583;27;45372;-54
2022/08/04 11:05:58;;;;;;;;;4.00;0.80;;;;;44.13;22.03;100978.56;5121766;27;45260;-54
2022/08/04 11:08:41;;;;;;;;;1.80;1.80;;;;;44.83;21.36;100983.94;5121923;27;45403;-54
2022/08/04 11:11:21;;;;;;;;;2.20;2.00;;;;;45.36;22.23;100983.22;5121311;27;46150;-55
2022/08/04 11:13:55;;;;;;;;;1.80;1.60;;;;;45.54;20.45;100995.56;5121427;27;45263;-54
2022/08/04 11:16:25;;;;;;;;;3.00;1.80;;;;;45.70;20.16;100995.38;5121301;27;45355;-53
2022/08/04 11:18:56;;;;;;;;;0.80;0.80;;;;;45.76;20.24;100985.41;5121533;27;45246;-52
2022/08/04 11:21:31;;;;;;;;;0.60;0.60;;;;;45.54;20.47;100982.31;5120719;27;45467;-53
2022/08/04 11:24:13;;;;;;;;;2.20;1.80;;;;;45.15;20.23;100978.09;5120976;27;45296;-54
2022/08/04 11:26:53;;;;;;;;;1.80;1.00;;;;;45.06;20.52;100989.59;5121336;27;45437;-53
2022/08/04 11:29:25;;;;;;;;;2.80;1.80;;;;;44.60;20.67;100981.09;5121496;27;45312;-55
2022/08/04 11:31:56;;;;;;;;;2.00;2.00;;;;;43.53;21.76;100985.28;5121026;27;45397;-52
2022/08/04 11:34:24;;;;;;;;;1.20;1.20;;;;;41.93;23.18;100990.13;5120881;27;45508;-54
2022/08/04 11:37:04;;;;;;;;;2.40;1.40;;;;;40.44;24.19;100997.03;5120976;27;45214;-54
2022/08/04 11:39:41;;;;;;;;;2.20;1.00;;;;;39.38;25.71;100979.41;5121248;27;45458;-53
2022/08/04 11:42:22;;;;;;;;;1.60;1.00;;;;;38.68;26.97;101003.03;5120769;27;45421;-53
2022/08/04 11:44:59;;;;;;;;;3.00;1.40;;;;;38.09;27.23;100992.41;5120857;27;45396;-58
2022/08/04 11:47:46;;;;;;;;;2.40;1.40;;;;;37.52;28.11;101008.31;5120087;27;45440;-55
2022/08/04 11:50:20;;;;;;;;;2.00;2.00;;;;;37.08;28.34;101001.75;5121076;27;45340;-54
2022/08/04 11:52:47;;;;;;;;;2.40;1.00;;;;;36.72;28.93;101005.44;5120692;27;46615;-54
2022/08/04 11:55:15;;;;;;;;;4.00;2.80;;;;;36.50;29.26;101002.69;5120875;27;45315;-55
2022/08/04 11:57:40;;;;;;;;;1.80;1.80;;;;;36.30;29.34;101003.97;5120156;27;45464;-54
2022/08/04 12:00:11;;;;;;;;;1.25;1.25;;;;;35.86;29.81;100997.19;5120995;27;45379;-52
2022/08/04 12:03:00;;;;;;;;;0.80;0.40;;;;;35.48;30.70;101001.03;5120342;27;45252;-55
2022/08/04 12:05:56;;;;;;;;;1.80;1.00;;;;;35.38;30.57;101000.38;5120671;27;45477;-56
2022/08/04 12:08:32;;;;;;;;;2.60;2.40;;;;;35.19;31.03;101006.03;5120062;27;45561;-52